sensor_id;sensor_type;location;lat;lon;timestamp;P1;durP1;ratioP1;P2;durP2;ratioP2
22378;SDS011;11357;49.990;7.370;2022-10-04T00:00:09;1643.77;;;915.90;;
22378;SDS011;11357;49.990;7.370;2022-10-04T00:02:37;1517.27;;;857.17;;
22378;SDS011;11357;49.990;7.370;2022-10-04T00:05:11;1488.37;;;868.43;;
22378;SDS011;11357;49.990;7.370;2022-10-04T00:07:45;1640.30;;;904.03;;
22378;SDS011;11357;49.990;7.370;2022-10-04T00:10:22;1602.73;;;889.57;;
22378;SDS011;11357;49.990;7.370;2022-10-04T00:15:25;1662.43;;;942.67;;
22378;SDS011;11357;49.990;7.370;2022-10-04T00:18:00;1760.70;;;915.23;;
22378;SDS011;11357;49.990;7.370;2022-10-04T00:25:54;1693.77;;;893.30;;
22378;SDS011;11357;49.990;7.370;2022-10-04T00:33:37;1924.43;;;926.53;;
22378;SDS011;11357;49.990;7.370;2022-10-04T00:41:34;1980.83;;;905.00;;
22378;SDS011;11357;49.990;7.370;2022-10-04T00:47:00;1915.43;;;838.53;;
22378;SDS011;11357;49.990;7.370;2022-10-04T00:49:34;1636.60;;;864.63;;
22378;SDS011;11357;49.990;7.370;2022-10-04T00:52:15;1791.13;;;890.77;;
22378;SDS011;11357;49.990;7.370;2022-10-04T00:54:50;1683.20;;;892.87;;
22378;SDS011;11357;49.990;7.370;2022-10-04T00:57:22;1824.70;;;847.83;;
22378;SDS011;11357;49.990;7.370;2022-10-04T00:59:59;1916.53;;;871.37;;
22378;SDS011;11357;49.990;7.370;2022-10-04T01:02:34;1963.03;;;888.47;;
22378;SDS011;11357;49.990;7.370;2022-10-04T01:05:14;1964.17;;;834.30;;
22378;SDS011;11357;49.990;7.370;2022-10-04T01:07:57;1967.60;;;830.07;;
22378;SDS011;11357;49.990;7.370;2022-10-04T01:10:31;1876.97;;;863.13;;
22378;SDS011;11357;49.990;7.370;2022-10-04T01:15:43;1907.67;;;827.10;;
22378;SDS011;11357;49.990;7.370;2022-10-04T01:23:33;1955.57;;;817.83;;
22378;SDS011;11357;49.990;7.370;2022-10-04T01:26:06;1812.60;;;770.13;;
22378;SDS011;11357;49.990;7.370;2022-10-04T01:29:16;1974.53;;;811.07;;
22378;SDS011;11357;49.990;7.370;2022-10-04T01:31:41;1791.50;;;719.40;;
22378;SDS011;11357;49.990;7.370;2022-10-04T01:34:29;1983.77;;;810.03;;
22378;SDS011;11357;49.990;7.370;2022-10-04T01:36:58;1869.83;;;756.00;;
22378;SDS011;11357;49.990;7.370;2022-10-04T01:39:25;1925.00;;;710.07;;
22378;SDS011;11357;49.990;7.370;2022-10-04T01:47:16;1786.20;;;700.00;;
22378;SDS011;11357;49.990;7.370;2022-10-04T01:49:46;1766.57;;;657.93;;
22378;SDS011;11357;49.990;7.370;2022-10-04T01:52:15;1873.57;;;752.00;;
22378;SDS011;11357;49.990;7.370;2022-10-04T01:54:48;1749.17;;;729.10;;
22378;SDS011;11357;49.990;7.370;2022-10-04T01:57:29;1600.83;;;646.20;;
22378;SDS011;11357;49.990;7.370;2022-10-04T02:02:35;1898.73;;;783.90;;
22378;SDS011;11357;49.990;7.370;2022-10-04T02:05:05;1842.77;;;738.10;;
22378;SDS011;11357;49.990;7.370;2022-10-04T02:07:34;1876.10;;;707.73;;
22378;SDS011;11357;49.990;7.370;2022-10-04T02:10:03;1941.30;;;810.57;;
22378;SDS011;11357;49.990;7.370;2022-10-04T02:12:34;1736.60;;;726.80;;
22378;SDS011;11357;49.990;7.370;2022-10-04T02:15:05;1909.53;;;811.70;;
22378;SDS011;11357;49.990;7.370;2022-10-04T02:17:33;1940.30;;;782.37;;
22378;SDS011;11357;49.990;7.370;2022-10-04T02:20:07;1742.57;;;669.93;;
22378;SDS011;11357;49.990;7.370;2022-10-04T02:22:43;1733.53;;;664.63;;
22378;SDS011;11357;49.990;7.370;2022-10-04T02:25:11;1800.57;;;700.53;;
22378;SDS011;11357;49.990;7.370;2022-10-04T02:27:38;1720.13;;;688.17;;
22378;SDS011;11357;49.990;7.370;2022-10-04T02:30:08;1646.33;;;636.40;;
22378;SDS011;11357;49.990;7.370;2022-10-04T02:32:38;1567.23;;;636.60;;
22378;SDS011;11357;49.990;7.370;2022-10-04T02:35:21;1333.37;;;522.40;;
22378;SDS011;11357;49.990;7.370;2022-10-04T02:38:12;1574.87;;;613.43;;
22378;SDS011;11357;49.990;7.370;2022-10-04T02:40:45;1348.27;;;526.47;;
22378;SDS011;11357;49.990;7.370;2022-10-04T02:43:26;1133.63;;;441.87;;
22378;SDS011;11357;49.990;7.370;2022-10-04T02:46:13;1475.07;;;613.10;;
22378;SDS011;11357;49.990;7.370;2022-10-04T02:48:57;1386.83;;;538.57;;
22378;SDS011;11357;49.990;7.370;2022-10-04T02:54:15;1393.60;;;518.13;;
22378;SDS011;11357;49.990;7.370;2022-10-04T02:56:42;1716.00;;;696.37;;
22378;SDS011;11357;49.990;7.370;2022-10-04T02:59:13;1585.53;;;602.13;;
22378;SDS011;11357;49.990;7.370;2022-10-04T03:02:00;1623.37;;;634.53;;
22378;SDS011;11357;49.990;7.370;2022-10-04T03:04:27;1483.13;;;598.13;;
22378;SDS011;11357;49.990;7.370;2022-10-04T03:06:56;1382.33;;;527.37;;
22378;SDS011;11357;49.990;7.370;2022-10-04T03:09:29;1445.93;;;567.80;;
22378;SDS011;11357;49.990;7.370;2022-10-04T03:11:55;1650.40;;;667.33;;
22378;SDS011;11357;49.990;7.370;2022-10-04T03:14:22;1491.40;;;623.93;;
22378;SDS011;11357;49.990;7.370;2022-10-04T03:16:51;1304.30;;;518.10;;
22378;SDS011;11357;49.990;7.370;2022-10-04T03:19:23;1339.93;;;509.10;;
22378;SDS011;11357;49.990;7.370;2022-10-04T03:21:52;1386.03;;;556.83;;
22378;SDS011;11357;49.990;7.370;2022-10-04T03:24:26;1564.67;;;598.37;;
22378;SDS011;11357;49.990;7.370;2022-10-04T03:26:55;1517.77;;;600.60;;
22378;SDS011;11357;49.990;7.370;2022-10-04T03:29:23;1406.67;;;558.67;;
22378;SDS011;11357;49.990;7.370;2022-10-04T03:31:53;1562.07;;;646.50;;
22378;SDS011;11357;49.990;7.370;2022-10-04T03:34:38;1432.77;;;579.47;;
22378;SDS011;11357;49.990;7.370;2022-10-04T03:37:12;1476.50;;;577.30;;
22378;SDS011;11357;49.990;7.370;2022-10-04T03:39:44;1317.03;;;526.20;;
22378;SDS011;11357;49.990;7.370;2022-10-04T03:44:50;1317.07;;;529.17;;
22378;SDS011;11357;49.990;7.370;2022-10-04T03:47:20;1580.90;;;615.53;;
22378;SDS011;11357;49.990;7.370;2022-10-04T03:49:51;1582.90;;;626.17;;
22378;SDS011;11357;49.990;7.370;2022-10-04T03:52:22;1724.47;;;703.00;;
22378;SDS011;11357;49.990;7.370;2022-10-04T03:54:50;1519.63;;;615.13;;
22378;SDS011;11357;49.990;7.370;2022-10-04T03:57:18;1635.80;;;649.90;;
22378;SDS011;11357;49.990;7.370;2022-10-04T03:59:44;1756.53;;;697.73;;
22378;SDS011;11357;49.990;7.370;2022-10-04T04:07:40;1535.43;;;607.23;;
22378;SDS011;11357;49.990;7.370;2022-10-04T04:10:20;1545.43;;;602.33;;
22378;SDS011;11357;49.990;7.370;2022-10-04T04:15:31;1466.87;;;558.83;;
22378;SDS011;11357;49.990;7.370;2022-10-04T04:18:02;1485.93;;;594.83;;
22378;SDS011;11357;49.990;7.370;2022-10-04T04:20:36;1624.10;;;639.53;;
22378;SDS011;11357;49.990;7.370;2022-10-04T04:23:04;1636.97;;;646.00;;
22378;SDS011;11357;49.990;7.370;2022-10-04T04:26:22;1163.57;;;431.13;;
22378;SDS011;11357;49.990;7.370;2022-10-04T04:29:01;1537.47;;;589.67;;
22378;SDS011;11357;49.990;7.370;2022-10-04T04:31:35;1585.00;;;612.03;;
22378;SDS011;11357;49.990;7.370;2022-10-04T04:36:56;1543.90;;;565.07;;
22378;SDS011;11357;49.990;7.370;2022-10-04T04:39:27;1216.33;;;424.20;;
22378;SDS011;11357;49.990;7.370;2022-10-04T04:44:35;1461.87;;;552.10;;
22378;SDS011;11357;49.990;7.370;2022-10-04T04:47:07;1447.87;;;548.57;;
22378;SDS011;11357;49.990;7.370;2022-10-04T04:49:41;1417.77;;;562.03;;
22378;SDS011;11357;49.990;7.370;2022-10-04T04:52:11;1469.73;;;542.87;;
22378;SDS011;11357;49.990;7.370;2022-10-04T04:54:40;1276.03;;;480.57;;
22378;SDS011;11357;49.990;7.370;2022-10-04T04:57:07;1128.70;;;430.83;;
22378;SDS011;11357;49.990;7.370;2022-10-04T04:59:33;1527.20;;;606.80;;
22378;SDS011;11357;49.990;7.370;2022-10-04T05:02:01;1656.17;;;637.43;;
22378;SDS011;11357;49.990;7.370;2022-10-04T05:04:27;1310.47;;;499.53;;
22378;SDS011;11357;49.990;7.370;2022-10-04T05:07:02;1319.43;;;498.40;;
22378;SDS011;11357;49.990;7.370;2022-10-04T05:09:34;1501.33;;;475.90;;
22378;SDS011;11357;49.990;7.370;2022-10-04T05:12:07;950.27;;;376.03;;
22378;SDS011;11357;49.990;7.370;2022-10-04T05:14:38;1238.90;;;496.53;;
22378;SDS011;11357;49.990;7.370;2022-10-04T05:17:14;1445.07;;;543.20;;
22378;SDS011;11357;49.990;7.370;2022-10-04T05:19:55;946.07;;;385.57;;
22378;SDS011;11357;49.990;7.370;2022-10-04T05:22:23;984.23;;;362.33;;
22378;SDS011;11357;49.990;7.370;2022-10-04T05:24:51;1199.27;;;437.77;;
22378;SDS011;11357;49.990;7.370;2022-10-04T05:27:31;1171.43;;;460.80;;
22378;SDS011;11357;49.990;7.370;2022-10-04T05:30:04;1042.00;;;422.47;;
22378;SDS011;11357;49.990;7.370;2022-10-04T05:32:50;1048.20;;;391.87;;
22378;SDS011;11357;49.990;7.370;2022-10-04T05:41:08;898.20;;;332.57;;
22378;SDS011;11357;49.990;7.370;2022-10-04T05:43:44;1045.77;;;387.43;;
22378;SDS011;11357;49.990;7.370;2022-10-04T05:46:32;1226.10;;;465.77;;
22378;SDS011;11357;49.990;7.370;2022-10-04T05:51:28;1197.00;;;468.80;;
22378;SDS011;11357;49.990;7.370;2022-10-04T05:53:56;1452.00;;;537.43;;
22378;SDS011;11357;49.990;7.370;2022-10-04T06:24:19;1163.87;;;432.77;;
22378;SDS011;11357;49.990;7.370;2022-10-04T06:29:36;1313.53;;;490.33;;
22378;SDS011;11357;49.990;7.370;2022-10-04T06:43:06;1992.90;;;800.53;;
22378;SDS011;11357;49.990;7.370;2022-10-04T06:48:48;1986.83;;;861.47;;
22378;SDS011;11357;49.990;7.370;2022-10-04T07:01:26;1943.03;;;942.30;;
22378;SDS011;11357;49.990;7.370;2022-10-04T07:04:12;1914.83;;;961.83;;
22378;SDS011;11357;49.990;7.370;2022-10-04T07:06:51;1912.17;;;951.80;;
22378;SDS011;11357;49.990;7.370;2022-10-04T07:09:22;1845.37;;;952.33;;
22378;SDS011;11357;49.990;7.370;2022-10-04T07:11:52;1682.43;;;950.87;;
22378;SDS011;11357;49.990;7.370;2022-10-04T07:14:30;1563.93;;;946.40;;
22378;SDS011;11357;49.990;7.370;2022-10-04T07:17:25;1999.90;;;994.00;;
22378;SDS011;11357;49.990;7.370;2022-10-04T07:19:53;1965.23;;;995.03;;
22378;SDS011;11357;49.990;7.370;2022-10-04T07:22:29;1751.13;;;942.33;;
22378;SDS011;11357;49.990;7.370;2022-10-04T07:25:11;1828.37;;;935.73;;
22378;SDS011;11357;49.990;7.370;2022-10-04T07:31:03;1927.97;;;997.50;;
22378;SDS011;11357;49.990;7.370;2022-10-04T07:33:48;1675.57;;;961.03;;
22378;SDS011;11357;49.990;7.370;2022-10-04T07:36:19;1547.63;;;958.90;;
22378;SDS011;11357;49.990;7.370;2022-10-04T07:38:50;1484.53;;;914.03;;
22378;SDS011;11357;49.990;7.370;2022-10-04T07:41:23;1466.53;;;917.37;;
22378;SDS011;11357;49.990;7.370;2022-10-04T07:43:54;1511.93;;;935.33;;
22378;SDS011;11357;49.990;7.370;2022-10-04T07:46:38;1467.30;;;923.47;;
22378;SDS011;11357;49.990;7.370;2022-10-04T07:49:16;1517.03;;;916.50;;
22378;SDS011;11357;49.990;7.370;2022-10-04T08:00:45;1291.97;;;888.53;;
22378;SDS011;11357;49.990;7.370;2022-10-04T08:08:50;856.63;;;675.57;;
22378;SDS011;11357;49.990;7.370;2022-10-04T08:17:13;474.57;;;356.10;;
22378;SDS011;11357;49.990;7.370;2022-10-04T08:22:32;383.83;;;333.63;;
22378;SDS011;11357;49.990;7.370;2022-10-04T08:25:15;554.87;;;501.63;;
22378;SDS011;11357;49.990;7.370;2022-10-04T08:30:54;494.67;;;445.60;;
22378;SDS011;11357;49.990;7.370;2022-10-04T08:48:11;493.87;;;441.13;;
22378;SDS011;11357;49.990;7.370;2022-10-04T08:57:11;559.53;;;500.53;;
22378;SDS011;11357;49.990;7.370;2022-10-04T09:16:36;501.47;;;452.80;;
22378;SDS011;11357;49.990;7.370;2022-10-04T09:29:50;440.80;;;398.53;;
22378;SDS011;11357;49.990;7.370;2022-10-04T09:37:59;508.20;;;454.40;;
22378;SDS011;11357;49.990;7.370;2022-10-04T10:09:53;957.80;;;814.87;;
22378;SDS011;11357;49.990;7.370;2022-10-04T10:24:44;1999.90;;;999.90;;
22378;SDS011;11357;49.990;7.370;2022-10-04T10:36:12;1933.68;;;846.20;;
22378;SDS011;11357;49.990;7.370;2022-10-04T10:41:44;1999.90;;;999.90;;
22378;SDS011;11357;49.990;7.370;2022-10-04T10:44:38;1999.90;;;999.90;;
22378;SDS011;11357;49.990;7.370;2022-10-04T10:47:24;1999.90;;;999.90;;
22378;SDS011;11357;49.990;7.370;2022-10-04T11:14:08;952.90;;;809.35;;
22378;SDS011;11357;49.990;7.370;2022-10-04T11:28:34;864.55;;;775.63;;
22378;SDS011;11357;49.990;7.370;2022-10-04T11:31:26;573.67;;;525.35;;
22378;SDS011;11357;49.990;7.370;2022-10-04T12:06:38;1999.90;;;997.63;;
22378;SDS011;11357;49.990;7.370;2022-10-04T12:09:32;1999.90;;;987.67;;
22378;SDS011;11357;49.990;7.370;2022-10-04T12:18:43;1938.13;;;999.90;;
22378;SDS011;11357;49.990;7.370;2022-10-04T12:20:58;1999.90;;;894.20;;
22378;SDS011;11357;49.990;7.370;2022-10-04T12:26:40;1999.90;;;997.58;;
22378;SDS011;11357;49.990;7.370;2022-10-04T12:32:22;1057.95;;;898.63;;
22378;SDS011;11357;49.990;7.370;2022-10-04T12:49:01;1828.65;;;962.55;;
22378;SDS011;11357;49.990;7.370;2022-10-04T13:02:49;841.55;;;721.67;;
22378;SDS011;11357;49.990;7.370;2022-10-04T13:06:20;833.22;;;751.67;;
22378;SDS011;11357;49.990;7.370;2022-10-04T13:22:41;1999.90;;;999.90;;
22378;SDS011;11357;49.990;7.370;2022-10-04T13:33:49;1999.90;;;908.00;;
22378;SDS011;11357;49.990;7.370;2022-10-04T13:48:05;1999.90;;;937.53;;
22378;SDS011;11357;49.990;7.370;2022-10-04T14:10:56;1999.90;;;999.90;;
22378;SDS011;11357;49.990;7.370;2022-10-04T14:16:24;1999.90;;;999.90;;
22378;SDS011;11357;49.990;7.370;2022-10-04T14:19:24;1999.90;;;999.90;;
22378;SDS011;11357;49.990;7.370;2022-10-04T14:24:52;1999.90;;;545.88;;
22378;SDS011;11357;49.990;7.370;2022-10-04T14:30:14;1570.82;;;266.05;;
22378;SDS011;11357;49.990;7.370;2022-10-04T14:46:07;1999.90;;;533.22;;
22378;SDS011;11357;49.990;7.370;2022-10-04T14:54:30;1999.90;;;800.20;;
22378;SDS011;11357;49.990;7.370;2022-10-04T15:02:37;1999.90;;;901.03;;
22378;SDS011;11357;49.990;7.370;2022-10-04T15:10:56;1999.90;;;991.45;;
22378;SDS011;11357;49.990;7.370;2022-10-04T15:18:51;1999.90;;;999.90;;
22378;SDS011;11357;49.990;7.370;2022-10-04T15:26:59;1999.90;;;999.90;;
22378;SDS011;11357;49.990;7.370;2022-10-04T15:32:58;1999.90;;;999.90;;
22378;SDS011;11357;49.990;7.370;2022-10-04T15:39:04;1999.90;;;999.90;;
22378;SDS011;11357;49.990;7.370;2022-10-04T15:41:37;1999.90;;;999.90;;
22378;SDS011;11357;49.990;7.370;2022-10-04T15:44:41;1446.82;;;940.65;;
22378;SDS011;11357;49.990;7.370;2022-10-04T15:47:27;1050.45;;;818.72;;
22378;SDS011;11357;49.990;7.370;2022-10-04T15:50:21;1121.57;;;783.47;;
22378;SDS011;11357;49.990;7.370;2022-10-04T16:06:24;576.17;;;428.40;;
22378;SDS011;11357;49.990;7.370;2022-10-04T16:19:35;509.10;;;348.87;;
22378;SDS011;11357;49.990;7.370;2022-10-04T16:22:07;526.83;;;356.40;;
22378;SDS011;11357;49.990;7.370;2022-10-04T16:24:47;426.03;;;283.63;;
22378;SDS011;11357;49.990;7.370;2022-10-04T16:30:17;400.83;;;289.63;;
22378;SDS011;11357;49.990;7.370;2022-10-04T16:35:27;238.70;;;183.13;;
22378;SDS011;11357;49.990;7.370;2022-10-04T16:43:32;152.53;;;108.50;;
22378;SDS011;11357;49.990;7.370;2022-10-04T16:51:58;150.40;;;94.00;;
22378;SDS011;11357;49.990;7.370;2022-10-04T16:57:23;132.57;;;84.77;;
22378;SDS011;11357;49.990;7.370;2022-10-04T16:59:58;123.03;;;77.00;;
22378;SDS011;11357;49.990;7.370;2022-10-04T17:05:43;141.03;;;87.07;;
22378;SDS011;11357;49.990;7.370;2022-10-04T17:16:11;138.53;;;80.97;;
22378;SDS011;11357;49.990;7.370;2022-10-04T17:18:42;112.60;;;60.97;;
22378;SDS011;11357;49.990;7.370;2022-10-04T17:21:42;120.17;;;63.73;;
22378;SDS011;11357;49.990;7.370;2022-10-04T17:32:49;129.70;;;81.77;;
22378;SDS011;11357;49.990;7.370;2022-10-04T17:38:24;140.40;;;74.87;;
22378;SDS011;11357;49.990;7.370;2022-10-04T17:49:22;125.50;;;76.73;;
22378;SDS011;11357;49.990;7.370;2022-10-04T17:52:25;146.30;;;82.30;;
22378;SDS011;11357;49.990;7.370;2022-10-04T17:55:18;135.83;;;81.07;;
22378;SDS011;11357;49.990;7.370;2022-10-04T17:57:54;111.57;;;70.43;;
22378;SDS011;11357;49.990;7.370;2022-10-04T18:00:26;133.70;;;80.23;;
22378;SDS011;11357;49.990;7.370;2022-10-04T18:03:31;130.67;;;75.43;;
22378;SDS011;11357;49.990;7.370;2022-10-04T18:06:18;122.57;;;71.27;;
22378;SDS011;11357;49.990;7.370;2022-10-04T18:09:04;139.53;;;86.53;;
22378;SDS011;11357;49.990;7.370;2022-10-04T18:11:48;111.87;;;74.43;;
22378;SDS011;11357;49.990;7.370;2022-10-04T18:17:37;131.30;;;81.77;;
22378;SDS011;11357;49.990;7.370;2022-10-04T18:22:44;136.40;;;97.23;;
22378;SDS011;11357;49.990;7.370;2022-10-04T18:33:20;136.30;;;82.10;;
22378;SDS011;11357;49.990;7.370;2022-10-04T18:38:28;127.13;;;88.40;;
22378;SDS011;11357;49.990;7.370;2022-10-04T18:40:57;136.00;;;89.70;;
22378;SDS011;11357;49.990;7.370;2022-10-04T18:46:17;177.63;;;108.70;;
22378;SDS011;11357;49.990;7.370;2022-10-04T19:00:10;146.87;;;108.43;;
22378;SDS011;11357;49.990;7.370;2022-10-04T19:06:03;141.47;;;89.37;;
22378;SDS011;11357;49.990;7.370;2022-10-04T19:14:22;143.53;;;92.23;;
22378;SDS011;11357;49.990;7.370;2022-10-04T19:17:11;132.13;;;90.53;;
22378;SDS011;11357;49.990;7.370;2022-10-04T19:20:09;152.73;;;101.97;;
22378;SDS011;11357;49.990;7.370;2022-10-04T19:28:49;192.30;;;131.10;;
22378;SDS011;11357;49.990;7.370;2022-10-04T19:37:09;141.70;;;102.37;;
22378;SDS011;11357;49.990;7.370;2022-10-04T19:40:17;169.90;;;123.17;;
22378;SDS011;11357;49.990;7.370;2022-10-04T19:43:17;163.90;;;115.67;;
22378;SDS011;11357;49.990;7.370;2022-10-04T19:48:42;171.57;;;133.23;;
22378;SDS011;11357;49.990;7.370;2022-10-04T19:54:02;184.67;;;137.17;;
22378;SDS011;11357;49.990;7.370;2022-10-04T19:56:40;198.60;;;161.47;;
22378;SDS011;11357;49.990;7.370;2022-10-04T19:59:17;181.60;;;135.90;;
22378;SDS011;11357;49.990;7.370;2022-10-04T20:01:50;223.53;;;153.53;;
22378;SDS011;11357;49.990;7.370;2022-10-04T20:04:17;180.47;;;155.70;;
22378;SDS011;11357;49.990;7.370;2022-10-04T20:07:02;189.70;;;149.30;;
22378;SDS011;11357;49.990;7.370;2022-10-04T20:09:48;173.53;;;127.13;;
22378;SDS011;11357;49.990;7.370;2022-10-04T20:12:29;190.73;;;144.20;;
22378;SDS011;11357;49.990;7.370;2022-10-04T20:15:40;213.33;;;157.00;;
22378;SDS011;11357;49.990;7.370;2022-10-04T20:17:59;245.60;;;164.83;;
22378;SDS011;11357;49.990;7.370;2022-10-04T20:23:07;175.57;;;132.17;;
22378;SDS011;11357;49.990;7.370;2022-10-04T20:35:58;214.13;;;187.57;;
22378;SDS011;11357;49.990;7.370;2022-10-04T20:43:57;236.50;;;193.50;;
22378;SDS011;11357;49.990;7.370;2022-10-04T20:46:35;245.00;;;211.27;;
22378;SDS011;11357;49.990;7.370;2022-10-04T20:49:02;249.87;;;208.10;;
22378;SDS011;11357;49.990;7.370;2022-10-04T20:51:49;238.43;;;183.77;;
22378;SDS011;11357;49.990;7.370;2022-10-04T20:54:18;224.53;;;184.03;;
22378;SDS011;11357;49.990;7.370;2022-10-04T20:56:45;289.73;;;229.23;;
22378;SDS011;11357;49.990;7.370;2022-10-04T20:59:13;262.90;;;221.93;;
22378;SDS011;11357;49.990;7.370;2022-10-04T21:01:40;276.53;;;223.97;;
22378;SDS011;11357;49.990;7.370;2022-10-04T21:04:12;274.80;;;233.10;;
22378;SDS011;11357;49.990;7.370;2022-10-04T21:06:55;311.20;;;275.60;;
22378;SDS011;11357;49.990;7.370;2022-10-04T21:09:23;305.30;;;260.80;;
22378;SDS011;11357;49.990;7.370;2022-10-04T21:11:51;295.70;;;251.90;;
22378;SDS011;11357;49.990;7.370;2022-10-04T21:14:22;276.70;;;244.90;;
22378;SDS011;11357;49.990;7.370;2022-10-04T21:16:49;304.63;;;270.53;;
22378;SDS011;11357;49.990;7.370;2022-10-04T21:21:57;326.03;;;281.07;;
22378;SDS011;11357;49.990;7.370;2022-10-04T21:24:36;311.90;;;279.43;;
22378;SDS011;11357;49.990;7.370;2022-10-04T21:30:13;389.33;;;346.53;;
22378;SDS011;11357;49.990;7.370;2022-10-04T21:32:40;282.23;;;231.43;;
22378;SDS011;11357;49.990;7.370;2022-10-04T21:35:06;300.00;;;233.97;;
22378;SDS011;11357;49.990;7.370;2022-10-04T21:37:32;353.00;;;315.47;;
22378;SDS011;11357;49.990;7.370;2022-10-04T21:39:59;331.60;;;295.53;;
22378;SDS011;11357;49.990;7.370;2022-10-04T21:42:25;329.90;;;293.83;;
22378;SDS011;11357;49.990;7.370;2022-10-04T21:44:51;349.80;;;311.20;;
22378;SDS011;11357;49.990;7.370;2022-10-04T21:47:16;283.90;;;253.30;;
22378;SDS011;11357;49.990;7.370;2022-10-04T21:49:45;261.47;;;198.70;;
22378;SDS011;11357;49.990;7.370;2022-10-04T21:52:12;240.10;;;197.03;;
22378;SDS011;11357;49.990;7.370;2022-10-04T21:54:37;264.67;;;233.37;;
22378;SDS011;11357;49.990;7.370;2022-10-04T21:57:03;300.13;;;254.93;;
22378;SDS011;11357;49.990;7.370;2022-10-04T21:59:28;248.60;;;199.80;;
22378;SDS011;11357;49.990;7.370;2022-10-04T22:01:54;261.27;;;207.87;;
22378;SDS011;11357;49.990;7.370;2022-10-04T22:04:20;259.70;;;204.33;;
22378;SDS011;11357;49.990;7.370;2022-10-04T22:06:45;244.67;;;218.07;;
22378;SDS011;11357;49.990;7.370;2022-10-04T22:09:12;208.43;;;185.47;;
22378;SDS011;11357;49.990;7.370;2022-10-04T22:11:37;265.13;;;210.70;;
22378;SDS011;11357;49.990;7.370;2022-10-04T22:14:03;248.17;;;222.00;;
22378;SDS011;11357;49.990;7.370;2022-10-04T22:16:29;286.50;;;256.27;;
22378;SDS011;11357;49.990;7.370;2022-10-04T22:18:55;304.67;;;271.80;;
22378;SDS011;11357;49.990;7.370;2022-10-04T22:21:20;336.97;;;291.93;;
22378;SDS011;11357;49.990;7.370;2022-10-04T22:23:46;347.87;;;311.87;;
22378;SDS011;11357;49.990;7.370;2022-10-04T22:26:14;338.20;;;303.97;;
22378;SDS011;11357;49.990;7.370;2022-10-04T22:28:46;389.57;;;348.80;;
22378;SDS011;11357;49.990;7.370;2022-10-04T22:31:16;322.57;;;287.60;;
22378;SDS011;11357;49.990;7.370;2022-10-04T22:33:44;304.20;;;272.97;;
22378;SDS011;11357;49.990;7.370;2022-10-04T22:36:16;331.87;;;279.13;;
22378;SDS011;11357;49.990;7.370;2022-10-04T22:38:54;243.13;;;216.50;;
22378;SDS011;11357;49.990;7.370;2022-10-04T22:41:38;289.30;;;248.87;;
22378;SDS011;11357;49.990;7.370;2022-10-04T22:46:42;261.23;;;233.10;;
22378;SDS011;11357;49.990;7.370;2022-10-04T22:49:17;267.33;;;225.97;;
22378;SDS011;11357;49.990;7.370;2022-10-04T22:51:46;265.57;;;237.20;;
22378;SDS011;11357;49.990;7.370;2022-10-04T22:54:15;252.97;;;223.77;;
22378;SDS011;11357;49.990;7.370;2022-10-04T22:56:43;268.30;;;238.80;;
22378;SDS011;11357;49.990;7.370;2022-10-04T22:59:10;289.90;;;257.90;;
22378;SDS011;11357;49.990;7.370;2022-10-04T23:01:41;279.27;;;235.70;;
22378;SDS011;11357;49.990;7.370;2022-10-04T23:04:15;283.80;;;250.73;;
22378;SDS011;11357;49.990;7.370;2022-10-04T23:06:45;291.70;;;260.23;;
22378;SDS011;11357;49.990;7.370;2022-10-04T23:09:11;332.67;;;296.80;;
22378;SDS011;11357;49.990;7.370;2022-10-04T23:11:37;307.60;;;276.63;;
22378;SDS011;11357;49.990;7.370;2022-10-04T23:14:02;356.90;;;289.53;;
22378;SDS011;11357;49.990;7.370;2022-10-04T23:16:28;338.37;;;301.63;;
22378;SDS011;11357;49.990;7.370;2022-10-04T23:18:57;318.83;;;272.73;;
22378;SDS011;11357;49.990;7.370;2022-10-04T23:21:36;383.23;;;342.73;;
22378;SDS011;11357;49.990;7.370;2022-10-04T23:24:21;359.13;;;320.57;;
22378;SDS011;11357;49.990;7.370;2022-10-04T23:26:56;362.33;;;319.30;;
22378;SDS011;11357;49.990;7.370;2022-10-04T23:29:22;403.20;;;357.63;;
22378;SDS011;11357;49.990;7.370;2022-10-04T23:31:54;321.23;;;282.73;;
22378;SDS011;11357;49.990;7.370;2022-10-04T23:34:28;408.80;;;366.53;;
22378;SDS011;11357;49.990;7.370;2022-10-04T23:36:58;485.43;;;434.13;;
22378;SDS011;11357;49.990;7.370;2022-10-04T23:39:28;467.57;;;408.43;;
22378;SDS011;11357;49.990;7.370;2022-10-04T23:41:56;416.63;;;373.27;;
22378;SDS011;11357;49.990;7.370;2022-10-04T23:44:34;512.80;;;457.57;;
22378;SDS011;11357;49.990;7.370;2022-10-04T23:47:02;459.80;;;401.90;;
22378;SDS011;11357;49.990;7.370;2022-10-04T23:49:38;515.57;;;463.43;;
22378;SDS011;11357;49.990;7.370;2022-10-04T23:52:04;589.00;;;512.07;;
22378;SDS011;11357;49.990;7.370;2022-10-04T23:54:34;620.60;;;553.43;;
22378;SDS011;11357;49.990;7.370;2022-10-04T23:57:00;564.83;;;500.23;;
22378;SDS011;11357;49.990;7.370;2022-10-04T23:59:26;545.57;;;486.87;;
